OAL063 LEBA-LPCS
Flight info
| Callsign | OAL063 |
|---|---|
| Flight time | 1h 21m |
| Altitude | 6500 |
| Route | WHISKY HOMACHUELOS RIOVIAR MONASTERIO FREGENAL MOURAO MAXED VALVE PINHEIRO SETUBAL FONTEDATELHA COVADOVAPOR CHARLE |
| Aircraft | C208/L-SDFGR/C |
Departure
| Time | 2026-05-06 18:37 |
|---|---|
| Airport | Córdoba Airport (LEBA) |
Arrival
| Time | 2026-05-06 19:59 |
|---|---|
| Airport | Cascais Airport (LPCS) |
| Time | Latitude | Longitude | Altitude | Speed | Heading |
|---|---|---|---|---|---|
| 2026-05-06 18:07 | 37.84588 | -4.84388 | 303 ft | 0 kts | 200° |
| 2026-05-06 18:33 | 37.84589 | -4.84388 | 303 ft | 0 kts | 200° |
| 2026-05-06 18:35 | 37.84578 | -4.84395 | 303 ft | 3 kts | 212° |
| 2026-05-06 18:35 | 37.84543 | -4.84442 | 305 ft | 8 kts | 221° |
| 2026-05-06 18:36 | 37.84500 | -4.84474 | 305 ft | 11 kts | 210° |
| 2026-05-06 18:36 | 37.84516 | -4.84573 | 302 ft | 18 kts | 300° |
| 2026-05-06 18:36 | 37.84540 | -4.84642 | 302 ft | 7 kts | 263° |
| 2026-05-06 18:36 | 37.84449 | -4.84716 | 303 ft | 36 kts | 208° |
| 2026-05-06 18:37 | 37.84062 | -4.84987 | 303 ft | 87 kts | 213° |
| 2026-05-06 18:37 | 37.83492 | -4.85427 | 473 ft | 102 kts | 216° |
| 2026-05-06 18:37 | 37.83056 | -4.86115 | 737 ft | 104 kts | 258° |
| 2026-05-06 18:37 | 37.83167 | -4.87051 | 925 ft | 114 kts | 291° |
| 2026-05-06 18:38 | 37.83352 | -4.88052 | 1096 ft | 124 kts | 266° |
| 2026-05-06 18:38 | 37.83141 | -4.89159 | 1302 ft | 134 kts | 255° |
| 2026-05-06 18:38 | 37.82879 | -4.90305 | 1512 ft | 140 kts | 254° |
| 2026-05-06 18:38 | 37.82586 | -4.91504 | 1724 ft | 145 kts | 253° |
| 2026-05-06 18:39 | 37.82279 | -4.92728 | 1931 ft | 148 kts | 253° |
| 2026-05-06 18:39 | 37.81965 | -4.93976 | 2134 ft | 150 kts | 253° |
| 2026-05-06 18:39 | 37.81646 | -4.95238 | 2333 ft | 151 kts | 253° |
| 2026-05-06 18:40 | 37.81017 | -4.97788 | 2735 ft | 152 kts | 253° |
| 2026-05-06 18:40 | 37.80695 | -4.99059 | 2931 ft | 152 kts | 253° |
| 2026-05-06 18:40 | 37.80376 | -5.00334 | 3131 ft | 152 kts | 253° |
| 2026-05-06 18:40 | 37.80093 | -5.01624 | 3331 ft | 153 kts | 264° |
| 2026-05-06 18:41 | 37.80224 | -5.02920 | 3535 ft | 152 kts | 283° |
| 2026-05-06 18:41 | 37.80423 | -5.04258 | 3733 ft | 152 kts | 281° |
| 2026-05-06 18:41 | 37.80606 | -5.05574 | 3931 ft | 152 kts | 281° |
| 2026-05-06 18:41 | 37.80795 | -5.06898 | 4127 ft | 153 kts | 281° |
| 2026-05-06 18:42 | 37.80983 | -5.08217 | 4325 ft | 152 kts | 281° |
| 2026-05-06 18:42 | 37.81173 | -5.09540 | 4494 ft | 155 kts | 281° |
| 2026-05-06 18:42 | 37.81373 | -5.10936 | 4499 ft | 166 kts | 281° |
| 2026-05-06 18:42 | 37.81577 | -5.12406 | 4506 ft | 172 kts | 280° |
| 2026-05-06 18:43 | 37.81786 | -5.13917 | 4509 ft | 176 kts | 280° |
| 2026-05-06 18:43 | 37.82001 | -5.15453 | 4509 ft | 179 kts | 281° |
| 2026-05-06 18:43 | 37.82221 | -5.17006 | 4509 ft | 180 kts | 280° |
| 2026-05-06 18:43 | 37.82441 | -5.18566 | 4510 ft | 180 kts | 280° |
| 2026-05-06 18:44 | 37.82661 | -5.20102 | 4509 ft | 180 kts | 280° |
| 2026-05-06 18:44 | 37.82884 | -5.21663 | 4509 ft | 180 kts | 280° |
| 2026-05-06 18:44 | 37.83107 | -5.23232 | 4505 ft | 181 kts | 280° |
| 2026-05-06 18:44 | 37.83330 | -5.24802 | 4505 ft | 181 kts | 281° |
| 2026-05-06 18:45 | 37.83674 | -5.26329 | 4507 ft | 181 kts | 288° |
| 2026-05-06 18:45 | 37.84051 | -5.27849 | 4505 ft | 181 kts | 287° |
| 2026-05-06 18:45 | 37.84416 | -5.29369 | 4504 ft | 181 kts | 287° |
| 2026-05-06 18:45 | 37.84658 | -5.30380 | 4500 ft | 181 kts | 287° |
| 2026-05-06 18:46 | 37.85146 | -5.32412 | 4501 ft | 181 kts | 287° |
| 2026-05-06 18:46 | 37.85513 | -5.33936 | 4503 ft | 181 kts | 287° |
| 2026-05-06 18:46 | 37.85883 | -5.35461 | 4502 ft | 181 kts | 287° |
| 2026-05-06 18:46 | 37.86248 | -5.36990 | 4499 ft | 182 kts | 287° |
| 2026-05-06 18:47 | 37.86614 | -5.38520 | 4500 ft | 182 kts | 287° |
| 2026-05-06 18:47 | 37.86980 | -5.40051 | 4499 ft | 182 kts | 287° |
| 2026-05-06 18:47 | 37.87350 | -5.41579 | 4500 ft | 182 kts | 287° |
| 2026-05-06 18:47 | 37.87716 | -5.43108 | 4502 ft | 181 kts | 287° |
| 2026-05-06 18:48 | 37.88084 | -5.44632 | 4500 ft | 181 kts | 287° |
| 2026-05-06 18:48 | 37.88449 | -5.46160 | 4503 ft | 181 kts | 287° |
| 2026-05-06 18:48 | 37.88812 | -5.47689 | 4503 ft | 181 kts | 287° |
| 2026-05-06 18:48 | 37.89179 | -5.49223 | 4501 ft | 182 kts | 287° |
| 2026-05-06 18:49 | 37.89543 | -5.50735 | 4509 ft | 182 kts | 287° |
| 2026-05-06 18:49 | 37.89914 | -5.52285 | 4510 ft | 181 kts | 287° |
| 2026-05-06 18:49 | 37.90274 | -5.53796 | 4510 ft | 182 kts | 287° |
| 2026-05-06 18:49 | 37.90640 | -5.55330 | 4511 ft | 182 kts | 287° |
| 2026-05-06 18:50 | 37.91007 | -5.56863 | 4509 ft | 182 kts | 287° |
| 2026-05-06 18:50 | 37.91375 | -5.58398 | 4509 ft | 182 kts | 287° |
| 2026-05-06 18:50 | 37.91739 | -5.59939 | 4510 ft | 183 kts | 287° |
| 2026-05-06 18:50 | 37.92104 | -5.61483 | 4510 ft | 183 kts | 287° |
| 2026-05-06 18:51 | 37.92471 | -5.63026 | 4510 ft | 183 kts | 287° |
| 2026-05-06 18:51 | 37.92839 | -5.64565 | 4520 ft | 182 kts | 286° |
| 2026-05-06 18:51 | 37.93202 | -5.66106 | 4521 ft | 182 kts | 286° |
| 2026-05-06 18:51 | 37.93568 | -5.67643 | 4522 ft | 182 kts | 286° |
| 2026-05-06 18:52 | 37.93933 | -5.69178 | 4520 ft | 182 kts | 286° |
| 2026-05-06 18:52 | 37.94297 | -5.70713 | 4519 ft | 182 kts | 286° |
| 2026-05-06 18:52 | 37.94660 | -5.72245 | 4521 ft | 181 kts | 286° |
| 2026-05-06 18:52 | 37.95022 | -5.73778 | 4520 ft | 182 kts | 286° |
| 2026-05-06 18:53 | 37.95385 | -5.75317 | 4519 ft | 182 kts | 286° |
| 2026-05-06 18:53 | 37.95749 | -5.76852 | 4519 ft | 182 kts | 287° |
| 2026-05-06 18:53 | 37.96115 | -5.78391 | 4518 ft | 182 kts | 286° |
| 2026-05-06 18:53 | 37.96472 | -5.79911 | 4518 ft | 182 kts | 286° |
| 2026-05-06 18:54 | 37.96835 | -5.81451 | 4518 ft | 182 kts | 286° |
| 2026-05-06 18:54 | 37.97200 | -5.82991 | 4518 ft | 182 kts | 286° |
| 2026-05-06 18:54 | 37.97562 | -5.84530 | 4520 ft | 182 kts | 286° |
| 2026-05-06 18:54 | 37.97926 | -5.86076 | 4519 ft | 183 kts | 286° |
| 2026-05-06 18:55 | 37.98289 | -5.87622 | 4520 ft | 183 kts | 286° |
| 2026-05-06 18:55 | 37.98653 | -5.89175 | 4507 ft | 184 kts | 286° |
| 2026-05-06 18:55 | 37.99018 | -5.90731 | 4507 ft | 184 kts | 286° |
| 2026-05-06 18:55 | 37.99383 | -5.92281 | 4506 ft | 183 kts | 286° |
| 2026-05-06 18:56 | 37.99748 | -5.93826 | 4505 ft | 183 kts | 286° |
| 2026-05-06 18:56 | 38.00123 | -5.95368 | 4506 ft | 183 kts | 289° |
| 2026-05-06 18:56 | 38.00543 | -5.96889 | 4503 ft | 183 kts | 288° |
| 2026-05-06 18:56 | 38.00936 | -5.98415 | 4501 ft | 182 kts | 288° |
| 2026-05-06 18:57 | 38.01334 | -5.99945 | 4502 ft | 182 kts | 288° |
| 2026-05-06 18:57 | 38.01735 | -6.01473 | 4504 ft | 183 kts | 288° |
| 2026-05-06 18:57 | 38.02137 | -6.02997 | 4499 ft | 182 kts | 288° |
| 2026-05-06 18:57 | 38.02543 | -6.04524 | 4500 ft | 182 kts | 288° |
| 2026-05-06 18:58 | 38.02945 | -6.06047 | 4500 ft | 182 kts | 288° |
| 2026-05-06 18:58 | 38.03345 | -6.07571 | 4497 ft | 182 kts | 288° |
| 2026-05-06 18:58 | 38.03747 | -6.09091 | 4495 ft | 182 kts | 288° |
| 2026-05-06 18:58 | 38.04148 | -6.10612 | 4495 ft | 182 kts | 288° |
| 2026-05-06 18:59 | 38.04413 | -6.11621 | 4497 ft | 182 kts | 288° |
| 2026-05-06 18:59 | 38.04814 | -6.13151 | 4493 ft | 182 kts | 288° |
| 2026-05-06 18:59 | 38.05214 | -6.14674 | 4492 ft | 182 kts | 288° |
| 2026-05-06 18:59 | 38.05608 | -6.16168 | 4495 ft | 182 kts | 288° |
| 2026-05-06 19:00 | 38.06007 | -6.17695 | 4492 ft | 182 kts | 288° |
| 2026-05-06 19:00 | 38.06408 | -6.19221 | 4492 ft | 183 kts | 288° |
| 2026-05-06 19:00 | 38.06810 | -6.20754 | 4492 ft | 183 kts | 288° |
| 2026-05-06 19:00 | 38.07209 | -6.22280 | 4494 ft | 182 kts | 288° |
| 2026-05-06 19:01 | 38.07610 | -6.23807 | 4493 ft | 183 kts | 288° |
| 2026-05-06 19:01 | 38.08011 | -6.25334 | 4494 ft | 182 kts | 288° |
| 2026-05-06 19:01 | 38.08404 | -6.26864 | 4489 ft | 182 kts | 285° |
| 2026-05-06 19:01 | 38.08732 | -6.28417 | 4496 ft | 182 kts | 285° |
| 2026-05-06 19:02 | 38.09078 | -6.29963 | 4495 ft | 183 kts | 285° |
| 2026-05-06 19:02 | 38.09422 | -6.31521 | 4495 ft | 183 kts | 285° |
| 2026-05-06 19:02 | 38.09762 | -6.33076 | 4492 ft | 183 kts | 285° |
| 2026-05-06 19:02 | 38.10103 | -6.34630 | 4504 ft | 183 kts | 285° |
| 2026-05-06 19:03 | 38.10442 | -6.36187 | 4500 ft | 183 kts | 285° |
| 2026-05-06 19:03 | 38.10780 | -6.37744 | 4502 ft | 183 kts | 285° |
| 2026-05-06 19:03 | 38.11119 | -6.39300 | 4500 ft | 183 kts | 285° |
| 2026-05-06 19:03 | 38.11458 | -6.40854 | 4500 ft | 183 kts | 285° |
| 2026-05-06 19:04 | 38.11799 | -6.42409 | 4501 ft | 183 kts | 285° |
| 2026-05-06 19:04 | 38.12139 | -6.43962 | 4499 ft | 182 kts | 285° |
| 2026-05-06 19:04 | 38.12471 | -6.45501 | 4502 ft | 181 kts | 285° |
| 2026-05-06 19:04 | 38.12804 | -6.47043 | 4500 ft | 181 kts | 285° |
| 2026-05-06 19:05 | 38.13140 | -6.48589 | 4500 ft | 181 kts | 285° |
| 2026-05-06 19:05 | 38.13477 | -6.50132 | 4500 ft | 182 kts | 285° |
| 2026-05-06 19:05 | 38.13809 | -6.51661 | 4500 ft | 182 kts | 285° |
| 2026-05-06 19:05 | 38.14146 | -6.53213 | 4502 ft | 182 kts | 285° |
| 2026-05-06 19:06 | 38.14481 | -6.54766 | 4500 ft | 182 kts | 285° |
| 2026-05-06 19:06 | 38.14817 | -6.56320 | 4501 ft | 182 kts | 285° |
| 2026-05-06 19:06 | 38.15155 | -6.57890 | 4499 ft | 182 kts | 285° |
| 2026-05-06 19:06 | 38.15487 | -6.59418 | 4502 ft | 182 kts | 285° |
| 2026-05-06 19:07 | 38.15823 | -6.60968 | 4501 ft | 183 kts | 285° |
| 2026-05-06 19:07 | 38.16162 | -6.62544 | 4501 ft | 182 kts | 285° |
| 2026-05-06 19:07 | 38.16495 | -6.64076 | 4501 ft | 182 kts | 285° |
| 2026-05-06 19:07 | 38.16874 | -6.65610 | 4501 ft | 182 kts | 291° |
| 2026-05-06 19:08 | 38.17354 | -6.67100 | 4500 ft | 182 kts | 291° |
| 2026-05-06 19:08 | 38.17821 | -6.68593 | 4501 ft | 182 kts | 291° |
| 2026-05-06 19:08 | 38.18288 | -6.70093 | 4499 ft | 182 kts | 291° |
| 2026-05-06 19:08 | 38.18753 | -6.71591 | 4501 ft | 182 kts | 291° |
| 2026-05-06 19:09 | 38.19221 | -6.73089 | 4501 ft | 182 kts | 291° |
| 2026-05-06 19:09 | 38.19690 | -6.74586 | 4500 ft | 182 kts | 291° |
| 2026-05-06 19:09 | 38.20157 | -6.76080 | 4500 ft | 182 kts | 291° |
| 2026-05-06 19:09 | 38.20624 | -6.77574 | 4502 ft | 182 kts | 291° |
| 2026-05-06 19:10 | 38.21092 | -6.79068 | 4503 ft | 181 kts | 291° |
| 2026-05-06 19:10 | 38.21558 | -6.80561 | 4501 ft | 182 kts | 291° |
| 2026-05-06 19:10 | 38.22022 | -6.82057 | 4503 ft | 183 kts | 291° |
| 2026-05-06 19:10 | 38.22489 | -6.83565 | 4501 ft | 183 kts | 291° |
| 2026-05-06 19:11 | 38.22957 | -6.85069 | 4501 ft | 183 kts | 291° |
| 2026-05-06 19:11 | 38.23425 | -6.86572 | 4501 ft | 183 kts | 291° |
| 2026-05-06 19:11 | 38.23892 | -6.88071 | 4502 ft | 182 kts | 291° |
| 2026-05-06 19:11 | 38.24359 | -6.89570 | 4500 ft | 182 kts | 291° |
| 2026-05-06 19:12 | 38.24825 | -6.91070 | 4500 ft | 182 kts | 291° |
| 2026-05-06 19:12 | 38.25287 | -6.92562 | 4499 ft | 182 kts | 291° |
| 2026-05-06 19:12 | 38.25753 | -6.94056 | 4500 ft | 181 kts | 291° |
| 2026-05-06 19:12 | 38.26215 | -6.95550 | 4501 ft | 182 kts | 291° |
| 2026-05-06 19:13 | 38.26677 | -6.97047 | 4500 ft | 182 kts | 291° |
| 2026-05-06 19:13 | 38.27141 | -6.98539 | 4499 ft | 182 kts | 291° |
| 2026-05-06 19:13 | 38.27605 | -7.00036 | 4500 ft | 182 kts | 291° |
| 2026-05-06 19:13 | 38.28061 | -7.01511 | 4500 ft | 181 kts | 291° |
| 2026-05-06 19:14 | 38.28528 | -7.03021 | 4499 ft | 181 kts | 291° |
| 2026-05-06 19:14 | 38.28984 | -7.04497 | 4500 ft | 181 kts | 291° |
| 2026-05-06 19:14 | 38.29445 | -7.05990 | 4499 ft | 180 kts | 291° |
| 2026-05-06 19:14 | 38.29905 | -7.07474 | 4499 ft | 181 kts | 291° |
| 2026-05-06 19:15 | 38.30365 | -7.08966 | 4500 ft | 181 kts | 291° |
| 2026-05-06 19:15 | 38.30824 | -7.10454 | 4500 ft | 181 kts | 291° |
| 2026-05-06 19:15 | 38.31285 | -7.11947 | 4501 ft | 181 kts | 291° |
| 2026-05-06 19:15 | 38.31743 | -7.13438 | 4501 ft | 181 kts | 291° |
| 2026-05-06 19:16 | 38.32204 | -7.14929 | 4502 ft | 181 kts | 291° |
| 2026-05-06 19:16 | 38.32663 | -7.16423 | 4502 ft | 181 kts | 291° |
| 2026-05-06 19:16 | 38.33123 | -7.17918 | 4501 ft | 181 kts | 291° |
| 2026-05-06 19:16 | 38.33582 | -7.19409 | 4502 ft | 181 kts | 291° |
| 2026-05-06 19:17 | 38.34041 | -7.20903 | 4500 ft | 181 kts | 291° |
| 2026-05-06 19:17 | 38.34499 | -7.22397 | 4510 ft | 181 kts | 291° |
| 2026-05-06 19:17 | 38.34954 | -7.23890 | 4511 ft | 181 kts | 291° |
| 2026-05-06 19:17 | 38.35415 | -7.25387 | 4510 ft | 181 kts | 291° |
| 2026-05-06 19:18 | 38.35877 | -7.26887 | 4510 ft | 181 kts | 291° |
| 2026-05-06 19:18 | 38.36336 | -7.28383 | 4510 ft | 181 kts | 291° |
| 2026-05-06 19:18 | 38.36793 | -7.29876 | 4509 ft | 181 kts | 291° |
| 2026-05-06 19:18 | 38.37251 | -7.31368 | 4509 ft | 180 kts | 291° |
| 2026-05-06 19:19 | 38.37707 | -7.32860 | 4510 ft | 180 kts | 291° |
| 2026-05-06 19:19 | 38.38162 | -7.34350 | 4511 ft | 180 kts | 291° |
| 2026-05-06 19:19 | 38.38644 | -7.35826 | 4510 ft | 181 kts | 294° |
| 2026-05-06 19:19 | 38.39121 | -7.37303 | 4509 ft | 180 kts | 292° |
| 2026-05-06 19:20 | 38.39590 | -7.38786 | 4503 ft | 181 kts | 292° |
| 2026-05-06 19:20 | 38.40063 | -7.40295 | 4399 ft | 185 kts | 292° |
| 2026-05-06 19:20 | 38.40553 | -7.41822 | 4303 ft | 187 kts | 292° |
| 2026-05-06 19:20 | 38.41055 | -7.43357 | 4205 ft | 188 kts | 292° |
| 2026-05-06 19:21 | 38.41554 | -7.44897 | 4108 ft | 188 kts | 292° |
| 2026-05-06 19:21 | 38.42055 | -7.46433 | 4003 ft | 185 kts | 292° |
| 2026-05-06 19:21 | 38.42531 | -7.47909 | 3899 ft | 180 kts | 292° |
| 2026-05-06 19:21 | 38.43010 | -7.49383 | 3793 ft | 176 kts | 293° |
| 2026-05-06 19:22 | 38.43473 | -7.50814 | 3687 ft | 174 kts | 293° |
| 2026-05-06 19:22 | 38.43930 | -7.52230 | 3583 ft | 172 kts | 292° |
| 2026-05-06 19:22 | 38.44385 | -7.53638 | 3477 ft | 171 kts | 292° |
| 2026-05-06 19:22 | 38.44827 | -7.55016 | 3379 ft | 170 kts | 292° |
| 2026-05-06 19:23 | 38.45277 | -7.56409 | 3276 ft | 170 kts | 293° |
| 2026-05-06 19:23 | 38.45721 | -7.57800 | 3173 ft | 169 kts | 292° |
| 2026-05-06 19:23 | 38.46164 | -7.59188 | 3078 ft | 168 kts | 293° |
| 2026-05-06 19:23 | 38.46617 | -7.60572 | 2970 ft | 169 kts | 292° |
| 2026-05-06 19:24 | 38.47057 | -7.61957 | 2870 ft | 169 kts | 292° |
| 2026-05-06 19:24 | 38.47504 | -7.63342 | 2768 ft | 168 kts | 293° |
| 2026-05-06 19:24 | 38.47950 | -7.64724 | 2671 ft | 169 kts | 293° |
| 2026-05-06 19:24 | 38.48395 | -7.66110 | 2567 ft | 168 kts | 292° |
| 2026-05-06 19:25 | 38.48834 | -7.67492 | 2507 ft | 166 kts | 292° |
| 2026-05-06 19:25 | 38.49267 | -7.68839 | 2504 ft | 164 kts | 293° |
| 2026-05-06 19:25 | 38.49700 | -7.70180 | 2500 ft | 163 kts | 292° |
| 2026-05-06 19:25 | 38.50129 | -7.71520 | 2497 ft | 163 kts | 292° |
| 2026-05-06 19:26 | 38.50559 | -7.72861 | 2500 ft | 163 kts | 292° |
| 2026-05-06 19:26 | 38.50986 | -7.74199 | 2500 ft | 164 kts | 292° |
| 2026-05-06 19:26 | 38.51414 | -7.75542 | 2499 ft | 163 kts | 292° |
| 2026-05-06 19:26 | 38.51844 | -7.76886 | 2500 ft | 163 kts | 292° |
| 2026-05-06 19:27 | 38.52271 | -7.78227 | 2500 ft | 163 kts | 292° |
| 2026-05-06 19:27 | 38.52701 | -7.79569 | 2501 ft | 163 kts | 293° |
| 2026-05-06 19:27 | 38.53128 | -7.80912 | 2502 ft | 164 kts | 292° |
| 2026-05-06 19:27 | 38.53377 | -7.82319 | 2501 ft | 164 kts | 270° |
| 2026-05-06 19:28 | 38.53329 | -7.83771 | 2501 ft | 164 kts | 269° |
| 2026-05-06 19:28 | 38.53309 | -7.85231 | 2500 ft | 165 kts | 270° |
| 2026-05-06 19:28 | 38.53288 | -7.86692 | 2500 ft | 165 kts | 270° |
| 2026-05-06 19:28 | 38.53265 | -7.88154 | 2499 ft | 165 kts | 270° |
| 2026-05-06 19:29 | 38.53243 | -7.89617 | 2498 ft | 165 kts | 270° |
| 2026-05-06 19:29 | 38.53220 | -7.91077 | 2496 ft | 165 kts | 270° |
| 2026-05-06 19:29 | 38.53197 | -7.92537 | 2495 ft | 164 kts | 270° |
| 2026-05-06 19:29 | 38.53174 | -7.93997 | 2493 ft | 165 kts | 270° |
| 2026-05-06 19:30 | 38.53148 | -7.95460 | 2492 ft | 165 kts | 270° |
| 2026-05-06 19:30 | 38.53126 | -7.96923 | 2490 ft | 165 kts | 270° |
| 2026-05-06 19:30 | 38.53102 | -7.98384 | 2491 ft | 165 kts | 270° |
| 2026-05-06 19:30 | 38.53077 | -7.99845 | 2490 ft | 164 kts | 270° |
| 2026-05-06 19:31 | 38.53053 | -8.01304 | 2490 ft | 164 kts | 270° |
| 2026-05-06 19:31 | 38.53027 | -8.02756 | 2501 ft | 163 kts | 270° |
| 2026-05-06 19:31 | 38.52980 | -8.05639 | 2499 ft | 163 kts | 270° |
| 2026-05-06 19:32 | 38.52956 | -8.07088 | 2501 ft | 163 kts | 270° |
| 2026-05-06 19:32 | 38.52930 | -8.08528 | 2501 ft | 163 kts | 270° |
| 2026-05-06 19:32 | 38.52905 | -8.09976 | 2499 ft | 163 kts | 270° |
| 2026-05-06 19:32 | 38.52879 | -8.11421 | 2499 ft | 162 kts | 270° |
| 2026-05-06 19:33 | 38.52855 | -8.12864 | 2499 ft | 163 kts | 270° |
| 2026-05-06 19:33 | 38.52828 | -8.14308 | 2501 ft | 163 kts | 270° |
| 2026-05-06 19:33 | 38.52801 | -8.15753 | 2501 ft | 163 kts | 270° |
| 2026-05-06 19:33 | 38.52776 | -8.17199 | 2500 ft | 163 kts | 270° |
| 2026-05-06 19:34 | 38.52750 | -8.18643 | 2501 ft | 163 kts | 270° |
| 2026-05-06 19:34 | 38.52723 | -8.20090 | 2499 ft | 163 kts | 270° |
| 2026-05-06 19:34 | 38.52696 | -8.21538 | 2501 ft | 163 kts | 270° |
| 2026-05-06 19:34 | 38.52670 | -8.22982 | 2500 ft | 163 kts | 270° |
| 2026-05-06 19:35 | 38.52643 | -8.24431 | 2501 ft | 163 kts | 270° |
| 2026-05-06 19:35 | 38.52615 | -8.25874 | 2511 ft | 162 kts | 270° |
| 2026-05-06 19:35 | 38.52590 | -8.27297 | 2510 ft | 162 kts | 270° |
| 2026-05-06 19:35 | 38.52563 | -8.28738 | 2511 ft | 163 kts | 270° |
| 2026-05-06 19:36 | 38.52535 | -8.30182 | 2509 ft | 163 kts | 270° |
| 2026-05-06 19:36 | 38.52507 | -8.31627 | 2510 ft | 163 kts | 270° |
| 2026-05-06 19:36 | 38.52479 | -8.33094 | 2509 ft | 163 kts | 270° |
| 2026-05-06 19:36 | 38.52446 | -8.34538 | 2508 ft | 163 kts | 270° |
| 2026-05-06 19:37 | 38.52418 | -8.35966 | 2511 ft | 163 kts | 270° |
| 2026-05-06 19:37 | 38.52394 | -8.37410 | 2511 ft | 163 kts | 270° |
| 2026-05-06 19:37 | 38.52364 | -8.38857 | 2508 ft | 163 kts | 270° |
| 2026-05-06 19:37 | 38.52344 | -8.39838 | 2511 ft | 164 kts | 270° |
| 2026-05-06 19:38 | 38.52307 | -8.41758 | 2515 ft | 163 kts | 270° |
| 2026-05-06 19:38 | 38.52277 | -8.43208 | 2521 ft | 164 kts | 270° |
| 2026-05-06 19:38 | 38.52246 | -8.44662 | 2516 ft | 164 kts | 270° |
| 2026-05-06 19:38 | 38.52218 | -8.46115 | 2517 ft | 164 kts | 270° |
| 2026-05-06 19:39 | 38.52188 | -8.47565 | 2519 ft | 163 kts | 270° |
| 2026-05-06 19:39 | 38.52155 | -8.49015 | 2522 ft | 163 kts | 270° |
| 2026-05-06 19:39 | 38.52123 | -8.50465 | 2521 ft | 163 kts | 270° |
| 2026-05-06 19:39 | 38.52095 | -8.51911 | 2520 ft | 163 kts | 270° |
| 2026-05-06 19:40 | 38.52067 | -8.53357 | 2519 ft | 163 kts | 270° |
| 2026-05-06 19:40 | 38.52036 | -8.54804 | 2518 ft | 163 kts | 270° |
| 2026-05-06 19:40 | 38.52004 | -8.56252 | 2519 ft | 164 kts | 270° |
| 2026-05-06 19:40 | 38.51974 | -8.57695 | 2528 ft | 163 kts | 270° |
| 2026-05-06 19:41 | 38.51943 | -8.59138 | 2529 ft | 163 kts | 270° |
| 2026-05-06 19:41 | 38.51910 | -8.60587 | 2529 ft | 163 kts | 270° |
| 2026-05-06 19:41 | 38.51878 | -8.62030 | 2529 ft | 163 kts | 270° |
| 2026-05-06 19:41 | 38.51848 | -8.63480 | 2529 ft | 163 kts | 270° |
| 2026-05-06 19:42 | 38.51816 | -8.64927 | 2528 ft | 163 kts | 270° |
| 2026-05-06 19:42 | 38.51783 | -8.66362 | 2528 ft | 159 kts | 270° |
| 2026-05-06 19:42 | 38.51754 | -8.67757 | 2528 ft | 155 kts | 271° |
| 2026-05-06 19:42 | 38.51727 | -8.69127 | 2529 ft | 154 kts | 271° |
| 2026-05-06 19:43 | 38.51744 | -8.70488 | 2526 ft | 153 kts | 279° |
| 2026-05-06 19:43 | 38.51896 | -8.71829 | 2520 ft | 153 kts | 280° |
| 2026-05-06 19:43 | 38.52034 | -8.73169 | 2525 ft | 152 kts | 279° |
| 2026-05-06 19:43 | 38.52170 | -8.74507 | 2535 ft | 152 kts | 279° |
| 2026-05-06 19:44 | 38.52261 | -8.75395 | 2539 ft | 153 kts | 279° |
| 2026-05-06 19:44 | 38.52395 | -8.76739 | 2539 ft | 152 kts | 279° |
| 2026-05-06 19:44 | 38.52532 | -8.78081 | 2536 ft | 153 kts | 279° |
| 2026-05-06 19:44 | 38.52669 | -8.79419 | 2540 ft | 151 kts | 279° |
| 2026-05-06 19:45 | 38.52804 | -8.80755 | 2539 ft | 152 kts | 279° |
| 2026-05-06 19:45 | 38.52937 | -8.82093 | 2538 ft | 152 kts | 279° |
| 2026-05-06 19:45 | 38.53003 | -8.83440 | 2532 ft | 153 kts | 270° |
| 2026-05-06 19:45 | 38.52948 | -8.84798 | 2539 ft | 153 kts | 269° |
| 2026-05-06 19:46 | 38.52894 | -8.86158 | 2539 ft | 154 kts | 269° |
| 2026-05-06 19:46 | 38.52841 | -8.87509 | 2539 ft | 154 kts | 270° |
| 2026-05-06 19:46 | 38.52787 | -8.88873 | 2533 ft | 154 kts | 269° |
| 2026-05-06 19:46 | 38.52744 | -8.90234 | 2531 ft | 153 kts | 270° |
| 2026-05-06 19:47 | 38.52697 | -8.91597 | 2542 ft | 154 kts | 270° |
| 2026-05-06 19:47 | 38.52645 | -8.92967 | 2538 ft | 155 kts | 270° |
| 2026-05-06 19:47 | 38.52619 | -8.94328 | 2543 ft | 152 kts | 279° |
| 2026-05-06 19:47 | 38.52898 | -8.95626 | 2550 ft | 152 kts | 290° |
| 2026-05-06 19:48 | 38.53219 | -8.96897 | 2548 ft | 153 kts | 290° |
| 2026-05-06 19:48 | 38.53543 | -8.98188 | 2541 ft | 153 kts | 290° |
| 2026-05-06 19:48 | 38.53861 | -8.99476 | 2533 ft | 153 kts | 289° |
| 2026-05-06 19:48 | 38.54175 | -9.00772 | 2534 ft | 152 kts | 290° |
| 2026-05-06 19:49 | 38.54489 | -9.02063 | 2538 ft | 153 kts | 289° |
| 2026-05-06 19:49 | 38.54801 | -9.03358 | 2542 ft | 152 kts | 289° |
| 2026-05-06 19:49 | 38.55117 | -9.04664 | 2453 ft | 155 kts | 289° |
| 2026-05-06 19:49 | 38.55432 | -9.05975 | 2326 ft | 154 kts | 289° |
| 2026-05-06 19:50 | 38.55744 | -9.07268 | 2199 ft | 153 kts | 289° |
| 2026-05-06 19:50 | 38.56062 | -9.08576 | 2067 ft | 153 kts | 290° |
| 2026-05-06 19:50 | 38.56371 | -9.09855 | 2047 ft | 148 kts | 289° |
| 2026-05-06 19:50 | 38.56670 | -9.11095 | 2037 ft | 144 kts | 289° |
| 2026-05-06 19:51 | 38.56957 | -9.12300 | 2039 ft | 140 kts | 290° |
| 2026-05-06 19:51 | 38.57238 | -9.13479 | 2040 ft | 137 kts | 290° |
| 2026-05-06 19:51 | 38.57514 | -9.14643 | 2037 ft | 137 kts | 290° |
| 2026-05-06 19:51 | 38.57786 | -9.15801 | 2037 ft | 136 kts | 290° |
| 2026-05-06 19:52 | 38.58058 | -9.16958 | 2039 ft | 136 kts | 290° |
| 2026-05-06 19:52 | 38.58334 | -9.18114 | 2039 ft | 136 kts | 290° |
| 2026-05-06 19:52 | 38.58610 | -9.19272 | 2034 ft | 136 kts | 290° |
| 2026-05-06 19:52 | 38.58885 | -9.20423 | 2037 ft | 136 kts | 290° |
| 2026-05-06 19:53 | 38.59160 | -9.21584 | 2035 ft | 136 kts | 289° |
| 2026-05-06 19:53 | 38.59433 | -9.22739 | 2035 ft | 136 kts | 290° |
| 2026-05-06 19:53 | 38.59699 | -9.23899 | 2041 ft | 137 kts | 290° |
| 2026-05-06 19:53 | 38.59958 | -9.25063 | 2041 ft | 136 kts | 289° |
| 2026-05-06 19:54 | 38.60215 | -9.26233 | 2035 ft | 137 kts | 290° |
| 2026-05-06 19:54 | 38.60472 | -9.27393 | 2034 ft | 134 kts | 289° |
| 2026-05-06 19:54 | 38.60722 | -9.28530 | 2041 ft | 132 kts | 290° |
| 2026-05-06 19:54 | 38.61029 | -9.29605 | 2038 ft | 129 kts | 303° |
| 2026-05-06 19:55 | 38.61611 | -9.30476 | 2042 ft | 127 kts | 321° |
| 2026-05-06 19:55 | 38.62327 | -9.31129 | 2042 ft | 126 kts | 329° |
| 2026-05-06 19:55 | 38.63062 | -9.31749 | 2041 ft | 127 kts | 330° |
| 2026-05-06 19:55 | 38.63864 | -9.32224 | 2045 ft | 127 kts | 342° |
| 2026-05-06 19:56 | 38.64709 | -9.32558 | 2046 ft | 128 kts | 346° |
| 2026-05-06 19:56 | 38.65558 | -9.32847 | 2046 ft | 128 kts | 348° |
| 2026-05-06 19:56 | 38.66435 | -9.33118 | 1960 ft | 131 kts | 343° |
| 2026-05-06 19:56 | 38.67238 | -9.33491 | 1853 ft | 114 kts | 341° |
| 2026-05-06 19:57 | 38.67966 | -9.33833 | 1650 ft | 110 kts | 342° |
| 2026-05-06 19:57 | 38.68677 | -9.34158 | 1459 ft | 102 kts | 346° |
| 2026-05-06 19:57 | 38.69313 | -9.34311 | 1223 ft | 86 kts | 353° |
| 2026-05-06 19:57 | 38.69852 | -9.34484 | 1067 ft | 78 kts | 346° |
| 2026-05-06 19:58 | 38.70366 | -9.34676 | 907 ft | 79 kts | 347° |
| 2026-05-06 19:58 | 38.70899 | -9.34896 | 699 ft | 83 kts | 344° |
| 2026-05-06 19:58 | 38.71440 | -9.35093 | 508 ft | 79 kts | 348° |
| 2026-05-06 19:58 | 38.71975 | -9.35316 | 314 ft | 77 kts | 344° |
| 2026-05-06 19:59 | 38.72397 | -9.35478 | 314 ft | 37 kts | 345° |
| 2026-05-06 19:59 | 38.72535 | -9.35539 | 318 ft | 13 kts | 300° |
| 2026-05-06 19:59 | 38.72531 | -9.35609 | 318 ft | 13 kts | 252° |
| 2026-05-06 19:59 | 38.72475 | -9.35621 | 315 ft | 12 kts | 160° |
| 2026-05-06 20:00 | 38.72404 | -9.35595 | 311 ft | 15 kts | 159° |
| 2026-05-06 20:00 | 38.72331 | -9.35596 | 308 ft | 11 kts | 240° |
| 2026-05-06 20:00 | 38.72308 | -9.35708 | 304 ft | 12 kts | 250° |
| 2026-05-06 20:00 | 38.72241 | -9.35744 | 303 ft | 9 kts | 182° |
| 2026-05-06 20:01 | 38.72188 | -9.35741 | 302 ft | 6 kts | 146° |
| 2026-05-06 20:01 | 38.72176 | -9.35730 | 303 ft | 0 kts | 163° |
| 2026-05-06 20:03 | 38.72170 | -9.35763 | 300 ft | 0 kts | 265° |
| 2026-05-06 20:03 | 38.72169 | -9.35773 | 300 ft | 0 kts | 82° |